Time;durP1;ratioP1;P1;durP2;ratioP2;P2;SDS_P1;SDS_P2;PMS_P1;PMS_P2;Temp;Humidity;BMP_temperature;BMP_pressure;BME280_temperature;BME280_humidity;BME280_pressure;Samples;Min_cycle;Max_cycle;Signal;HPM_P1;HPM_P2
2022/12/31 00:00:27;;;;;;;;;;;11.30;90.00;;;;;;5037784;28;19935;-77
2022/12/31 00:02:52;;;;;;;;;;;11.30;90.00;;;;;;5036450;28;19925;-77
2022/12/31 00:05:18;;;;;;;;;;;11.40;90.00;;;;;;5039377;28;19924;-78
2022/12/31 00:07:43;;;;;;;;;;;11.50;90.00;;;;;;5037774;28;19940;-75
2022/12/31 00:10:09;;;;;;;;;;;11.50;90.00;;;;;;5039657;28;20027;-77
2022/12/31 00:12:34;;;;;;;;;;;11.60;90.00;;;;;;5037701;28;19917;-77
2022/12/31 00:15:00;;;;;;;;;;;11.60;90.00;;;;;;5039970;28;19921;-77
2022/12/31 00:17:25;;;;;;;;;;;11.70;90.00;;;;;;5039166;28;19947;-78
2022/12/31 00:19:51;;;;;;;;;;;11.70;90.00;;;;;;5021530;28;19991;-77
2022/12/31 00:22:16;;;;;;;;;;;11.80;90.00;;;;;;5052611;28;19950;-77
2022/12/31 00:24:42;;;;;;;;;;;11.80;90.00;;;;;;5037854;28;19924;-75
2022/12/31 00:27:07;;;;;;;;;;;11.90;90.00;;;;;;5049084;28;19917;-77
2022/12/31 00:29:33;;;;;;;;;;;11.90;90.00;;;;;;5053065;28;20125;-75
2022/12/31 00:31:58;;;;;;;;;;;11.90;89.90;;;;;;5036650;28;19917;-77
2022/12/31 00:34:23;;;;;;;;;;;12.00;89.90;;;;;;5037620;28;19931;-77
2022/12/31 00:36:49;;;;;;;;;;;12.00;89.90;;;;;;5051420;28;20263;-77
2022/12/31 00:39:14;;;;;;;;;;;12.00;89.90;;;;;;5039104;28;19933;-77
2022/12/31 00:41:42;;;;;;;;;;;12.00;89.90;;;;;;5021365;28;19921;-77
2022/12/31 00:44:07;;;;;;;;;;;12.10;90.00;;;;;;5040023;28;20401;-77
2022/12/31 00:46:33;;;;;;;;;;;12.10;89.90;;;;;;5050420;28;19917;-76
2022/12/31 00:48:58;;;;;;;;;;;12.20;89.90;;;;;;5038566;28;19931;-77
2022/12/31 00:51:26;;;;;;;;;;;12.20;90.00;;;;;;5037695;28;19920;-77
2022/12/31 00:53:51;;;;;;;;;;;12.30;89.90;;;;;;5051211;28;20023;-75
2022/12/31 00:56:18;;;;;;;;;;;12.30;89.90;;;;;;5053303;28;20015;-76
2022/12/31 00:58:43;;;;;;;;;;;12.30;89.80;;;;;;5022085;28;19921;-76
2022/12/31 01:01:22;;;;;;;;;;;12.30;89.80;;;;;;5037897;28;19994;-77
2022/12/31 01:03:48;;;;;;;;;;;12.40;89.90;;;;;;5052849;28;19925;-77
2022/12/31 01:06:14;;;;;;;;;;;12.40;89.90;;;;;;5037737;28;19927;-77
2022/12/31 01:08:39;;;;;;;;;;;12.40;89.90;;;;;;5035541;28;20375;-77
2022/12/31 01:11:23;;;;;;;;;;;12.40;90.20;;;;;;5036645;28;20673;-77
2022/12/31 01:13:48;;;;;;;;;;;12.40;89.80;;;;;;5038791;28;19921;-77
2022/12/31 01:16:14;;;;;;;;;;;12.40;89.80;;;;;;5038393;28;19971;-77
2022/12/31 01:18:40;;;;;;;;;;;12.50;90.00;;;;;;5023815;28;19921;-77
2022/12/31 01:21:06;;;;;;;;;;;12.50;89.90;;;;;;5022973;28;19932;-77
2022/12/31 01:23:32;;;;;;;;;;;12.50;89.90;;;;;;5031395;28;19917;-76
2022/12/31 01:26:01;;;;;;;;;;;12.60;90.00;;;;;;5039060;28;19928;-77
2022/12/31 01:28:26;;;;;;;;;;;12.60;90.00;;;;;;5050071;28;19960;-77
2022/12/31 01:30:52;;;;;;;;;;;12.60;90.00;;;;;;5038451;28;19960;-76
2022/12/31 01:33:17;;;;;;;;;;;12.70;90.00;;;;;;5052380;28;19921;-77
2022/12/31 01:35:43;;;;;;;;;;;12.70;89.90;;;;;;5037240;28;19952;-75
2022/12/31 01:38:08;;;;;;;;;;;12.80;89.90;;;;;;5035438;28;20003;-78
2022/12/31 01:40:37;;;;;;;;;;;12.80;89.90;;;;;;5036483;28;19994;-77
2022/12/31 01:43:05;;;;;;;;;;;12.80;89.90;;;;;;5034305;28;19960;-77
2022/12/31 01:45:30;;;;;;;;;;;12.80;89.80;;;;;;5034216;28;19917;-77
2022/12/31 01:47:56;;;;;;;;;;;12.80;89.80;;;;;;5036928;28;19917;-76
2022/12/31 01:50:28;;;;;;;;;;;12.90;89.80;;;;;;5035153;28;19925;-77
2022/12/31 01:52:55;;;;;;;;;;;12.90;89.80;;;;;;5031854;28;19928;-77
2022/12/31 01:55:28;;;;;;;;;;;12.90;90.20;;;;;;5053112;28;19924;-77
2022/12/31 01:57:55;;;;;;;;;;;12.90;89.80;;;;;;5031956;28;20122;-78
2022/12/31 02:00:20;;;;;;;;;;;12.90;89.80;;;;;;5033867;28;19931;-77
2022/12/31 02:02:46;;;;;;;;;;;12.90;89.80;;;;;;5049544;28;19921;-78
2022/12/31 02:05:22;;;;;;;;;;;13.00;89.70;;;;;;5037441;28;19945;-77
2022/12/31 02:07:47;;;;;;;;;;;13.00;89.80;;;;;;5032492;28;20612;-77
2022/12/31 02:10:13;;;;;;;;;;;13.00;89.70;;;;;;5037404;28;19924;-78
2022/12/31 02:12:38;;;;;;;;;;;13.00;89.70;;;;;;5030977;28;19921;-77
2022/12/31 02:15:04;;;;;;;;;;;13.00;89.70;;;;;;5023307;28;19982;-77
2022/12/31 02:17:32;;;;;;;;;;;13.00;89.70;;;;;;5039470;28;19927;-77
2022/12/31 02:20:17;;;;;;;;;;;13.00;89.70;;;;;;5037392;28;19925;-77
2022/12/31 02:22:42;;;;;;;;;;;13.10;89.70;;;;;;5036134;28;20425;-76
2022/12/31 02:25:26;;;;;;;;;;;13.10;89.70;;;;;;5037794;28;19999;-77
2022/12/31 02:27:57;;;;;;;;;;;13.10;89.80;;;;;;5040221;28;19925;-76
2022/12/31 02:30:23;;;;;;;;;;;13.10;89.70;;;;;;5037427;28;19931;-78
2022/12/31 02:32:57;;;;;;;;;;;13.10;90.20;;;;;;5041942;28;20299;-77
2022/12/31 02:35:29;;;;;;;;;;;13.20;89.80;;;;;;5022955;28;19921;-77
2022/12/31 02:38:00;;;;;;;;;;;13.20;89.90;;;;;;5035453;28;19922;-77
2022/12/31 02:40:26;;;;;;;;;;;13.20;89.90;;;;;;5036476;28;20287;-76
2022/12/31 02:42:51;;;;;;;;;;;13.30;89.80;;;;;;5039278;28;19931;-76
2022/12/31 02:45:18;;;;;;;;;;;13.40;89.80;;;;;;5039299;28;19971;-77
2022/12/31 02:47:43;;;;;;;;;;;13.40;89.80;;;;;;5038526;28;19970;-77
2022/12/31 02:50:12;;;;;;;;;;;13.40;89.70;;;;;;5038354;28;20015;-76
2022/12/31 02:52:47;;;;;;;;;;;13.40;89.60;;;;;;5018738;28;19928;-76
2022/12/31 02:55:16;;;;;;;;;;;13.40;89.70;;;;;;5022509;28;19924;-78
2022/12/31 02:57:51;;;;;;;;;;;13.40;89.70;;;;;;5038710;28;19929;-77
2022/12/31 03:03:00;;;;;;;;;;;13.50;89.60;;;;;;5038356;28;19927;-77
2022/12/31 03:05:27;;;;;;;;;;;13.50;89.60;;;;;;5039143;28;20514;-77
2022/12/31 03:07:52;;;;;;;;;;;13.50;89.60;;;;;;5037936;28;19925;-77
2022/12/31 03:10:18;;;;;;;;;;;13.50;89.60;;;;;;5037707;28;19926;-77
2022/12/31 03:12:46;;;;;;;;;;;13.50;89.50;;;;;;5037191;28;19928;-76
2022/12/31 03:15:20;;;;;;;;;;;13.50;89.50;;;;;;5038757;28;19929;-77
2022/12/31 03:17:49;;;;;;;;;;;13.50;89.50;;;;;;5052838;28;20082;-77
2022/12/31 03:22:58;;;;;;;;;;;13.50;89.50;;;;;;5034410;28;19928;-77
2022/12/31 03:25:39;;;;;;;;;;;13.50;89.50;;;;;;5022373;28;19925;-77
2022/12/31 03:28:05;;;;;;;;;;;13.60;89.50;;;;;;5041373;28;19928;-77
2022/12/31 03:30:31;;;;;;;;;;;13.60;89.60;;;;;;5052011;28;19925;-75
2022/12/31 03:32:56;;;;;;;;;;;13.60;89.50;;;;;;5037140;28;19920;-77
2022/12/31 03:35:22;;;;;;;;;;;13.60;89.40;;;;;;5036984;28;20015;-77
2022/12/31 03:37:47;;;;;;;;;;;13.60;89.40;;;;;;5037791;28;19921;-76
2022/12/31 03:40:13;;;;;;;;;;;13.70;89.50;;;;;;5035752;28;20477;-77
2022/12/31 03:42:39;;;;;;;;;;;13.70;89.40;;;;;;5032889;28;20020;-77
2022/12/31 03:45:04;;;;;;;;;;;13.70;89.40;;;;;;5037639;28;20027;-77
2022/12/31 03:47:30;;;;;;;;;;;13.70;89.40;;;;;;5034276;28;19921;-77
2022/12/31 03:49:55;;;;;;;;;;;13.70;89.30;;;;;;5031975;28;19925;-77
2022/12/31 03:52:21;;;;;;;;;;;13.70;89.30;;;;;;5035198;28;19982;-77
2022/12/31 03:54:46;;;;;;;;;;;13.70;89.30;;;;;;5035555;28;19931;-78
2022/12/31 03:57:11;;;;;;;;;;;13.80;89.40;;;;;;5036368;28;20599;-77
2022/12/31 03:59:37;;;;;;;;;;;13.70;89.20;;;;;;5032788;28;19928;-77
2022/12/31 04:02:03;;;;;;;;;;;13.70;89.20;;;;;;5034224;28;19936;-78
2022/12/31 04:04:28;;;;;;;;;;;13.70;89.20;;;;;;5036415;28;19932;-77
2022/12/31 04:06:54;;;;;;;;;;;13.70;89.20;;;;;;5034790;28;19921;-77
2022/12/31 04:09:19;;;;;;;;;;;13.70;89.20;;;;;;5050767;28;19929;-75
2022/12/31 04:11:44;;;;;;;;;;;13.80;89.40;;;;;;5035905;28;20836;-77
2022/12/31 04:14:10;;;;;;;;;;;13.80;89.30;;;;;;5037896;28;19921;-78
2022/12/31 04:16:36;;;;;;;;;;;13.80;89.30;;;;;;5032328;28;19931;-77
2022/12/31 04:19:01;;;;;;;;;;;13.80;89.20;;;;;;5035198;28;19921;-77
2022/12/31 04:21:27;;;;;;;;;;;13.80;89.30;;;;;;5036398;28;19920;-77
2022/12/31 04:23:52;;;;;;;;;;;13.80;89.30;;;;;;5034658;28;19921;-77
2022/12/31 04:26:18;;;;;;;;;;;13.80;89.20;;;;;;5036032;28;19921;-77
2022/12/31 04:28:43;;;;;;;;;;;13.80;89.20;;;;;;5036212;28;20505;-77
2022/12/31 04:31:10;;;;;;;;;;;13.80;89.20;;;;;;5041044;28;19928;-77
2022/12/31 04:33:35;;;;;;;;;;;13.80;89.20;;;;;;5037904;28;20509;-77
2022/12/31 04:36:01;;;;;;;;;;;13.90;89.20;;;;;;5052348;28;19943;-77
2022/12/31 04:38:28;;;;;;;;;;;13.90;89.30;;;;;;5052478;28;19947;-78
2022/12/31 04:43:38;;;;;;;;;;;13.90;89.20;;;;;;5036261;28;19947;-77
2022/12/31 04:46:03;;;;;;;;;;;13.90;89.20;;;;;;5056554;28;19925;-77
2022/12/31 04:48:29;;;;;;;;;;;14.00;89.20;;;;;;5036995;28;20387;-77
2022/12/31 04:50:54;;;;;;;;;;;14.00;89.10;;;;;;5050614;28;19925;-77
2022/12/31 04:53:20;;;;;;;;;;;14.00;89.10;;;;;;5035422;28;19925;-78
2022/12/31 04:55:45;;;;;;;;;;;14.00;89.10;;;;;;5022046;28;19921;-77
2022/12/31 04:58:10;;;;;;;;;;;14.00;89.10;;;;;;5038871;28;19925;-77
2022/12/31 05:00:36;;;;;;;;;;;14.00;89.00;;;;;;5033453;28;19925;-75
2022/12/31 05:03:01;;;;;;;;;;;14.00;89.10;;;;;;5052715;28;20022;-78
2022/12/31 05:05:27;;;;;;;;;;;14.10;89.10;;;;;;5056585;28;19921;-78
2022/12/31 05:07:52;;;;;;;;;;;14.10;89.00;;;;;;5037970;28;19972;-77
2022/12/31 05:10:18;;;;;;;;;;;14.10;89.10;;;;;;5037591;28;20280;-75
2022/12/31 05:12:43;;;;;;;;;;;14.10;89.70;;;;;;5037071;28;19920;-77
2022/12/31 05:15:09;;;;;;;;;;;14.20;88.90;;;;;;5040121;28;19978;-78
2022/12/31 05:17:34;;;;;;;;;;;14.20;88.90;;;;;;5021057;28;19927;-78
2022/12/31 05:20:00;;;;;;;;;;;14.20;88.90;;;;;;5039366;28;19971;-77
2022/12/31 05:22:28;;;;;;;;;;;14.20;88.90;;;;;;5022479;28;19924;-78
2022/12/31 05:24:54;;;;;;;;;;;14.20;88.90;;;;;;5035120;28;19921;-77
2022/12/31 05:27:19;;;;;;;;;;;14.20;88.90;;;;;;5052240;28;19975;-78
2022/12/31 05:29:44;;;;;;;;;;;14.20;88.80;;;;;;5036542;28;19932;-77
2022/12/31 05:32:10;;;;;;;;;;;14.30;88.80;;;;;;5037027;28;19921;-77
2022/12/31 05:34:35;;;;;;;;;;;14.30;88.80;;;;;;5038752;28;19924;-77
2022/12/31 05:37:01;;;;;;;;;;;14.30;88.70;;;;;;5038625;28;19954;-78
2022/12/31 05:39:26;;;;;;;;;;;14.30;88.70;;;;;;5040798;28;19936;-77
2022/12/31 05:41:52;;;;;;;;;;;14.40;88.80;;;;;;5034991;28;19924;-75
2022/12/31 05:44:17;;;;;;;;;;;14.40;88.70;;;;;;5040205;28;19960;-78
2022/12/31 05:46:43;;;;;;;;;;;14.40;88.70;;;;;;5038046;28;20023;-75
2022/12/31 05:49:08;;;;;;;;;;;14.40;88.70;;;;;;5044755;28;19931;-78
2022/12/31 05:51:33;;;;;;;;;;;14.40;88.70;;;;;;5042484;28;19967;-77
2022/12/31 05:53:59;;;;;;;;;;;14.50;88.70;;;;;;5042320;28;19924;-78
2022/12/31 05:56:25;;;;;;;;;;;14.50;88.60;;;;;;5041951;28;19917;-78
2022/12/31 05:58:50;;;;;;;;;;;14.50;88.60;;;;;;5037790;28;19928;-76
2022/12/31 06:01:16;;;;;;;;;;;14.50;88.60;;;;;;5043764;28;19940;-78
2022/12/31 06:03:41;;;;;;;;;;;14.50;88.50;;;;;;5024780;28;19925;-77
2022/12/31 06:06:06;;;;;;;;;;;14.50;89.30;;;;;;5040106;28;20387;-77
2022/12/31 06:08:32;;;;;;;;;;;14.60;88.50;;;;;;5056435;28;19998;-75
2022/12/31 06:10:57;;;;;;;;;;;14.60;88.50;;;;;;5040222;28;19931;-77
2022/12/31 06:13:23;;;;;;;;;;;14.60;88.40;;;;;;5041451;28;19952;-77
2022/12/31 06:15:48;;;;;;;;;;;14.60;88.40;;;;;;5051784;28;19972;-78
2022/12/31 06:18:14;;;;;;;;;;;14.60;88.40;;;;;;5043014;28;20027;-78
2022/12/31 06:20:39;;;;;;;;;;;14.60;88.50;;;;;;5055458;28;19952;-77
2022/12/31 06:23:05;;;;;;;;;;;14.60;88.40;;;;;;5040609;28;19933;-78
2022/12/31 06:25:30;;;;;;;;;;;14.70;88.40;;;;;;5036243;28;19925;-77
2022/12/31 06:27:56;;;;;;;;;;;14.70;88.30;;;;;;5039968;28;19925;-77
2022/12/31 06:30:21;;;;;;;;;;;14.70;88.30;;;;;;5042998;28;19925;-77
2022/12/31 06:32:46;;;;;;;;;;;14.70;88.30;;;;;;5035569;28;20353;-77
2022/12/31 06:35:12;;;;;;;;;;;14.70;88.20;;;;;;5043728;28;19947;-77
2022/12/31 06:37:37;;;;;;;;;;;14.70;88.20;;;;;;5039430;28;20352;-77
2022/12/31 06:40:03;;;;;;;;;;;14.80;88.20;;;;;;5041092;28;19929;-77
2022/12/31 06:42:29;;;;;;;;;;;14.80;88.20;;;;;;5057058;28;20475;-77
2022/12/31 06:44:55;;;;;;;;;;;14.80;88.20;;;;;;5019556;28;19963;-78
2022/12/31 06:47:21;;;;;;;;;;;14.80;88.10;;;;;;5040293;28;19945;-77
2022/12/31 06:49:46;;;;;;;;;;;14.80;88.00;;;;;;5037178;28;19921;-77
2022/12/31 06:52:12;;;;;;;;;;;14.80;88.00;;;;;;5040158;28;19924;-77
2022/12/31 06:54:37;;;;;;;;;;;14.80;88.00;;;;;;5036755;28;19927;-77
2022/12/31 06:57:03;;;;;;;;;;;14.80;88.00;;;;;;5024053;28;19983;-77
2022/12/31 06:59:28;;;;;;;;;;;14.80;88.00;;;;;;5039265;28;20525;-77
2022/12/31 07:02:03;;;;;;;;;;;14.80;87.90;;;;;;5036094;28;19920;-77
2022/12/31 07:04:38;;;;;;;;;;;14.80;87.90;;;;;;5037752;28;19928;-77
2022/12/31 07:07:22;;;;;;;;;;;14.90;88.00;;;;;;5037201;28;19925;-77
2022/12/31 07:10:10;;;;;;;;;;;14.90;87.90;;;;;;5025667;28;19924;-77
2022/12/31 07:12:41;;;;;;;;;;;14.90;87.90;;;;;;5038184;28;19928;-77
2022/12/31 07:15:29;;;;;;;;;;;15.00;87.90;;;;;;5035518;28;20016;-77
2022/12/31 07:17:54;;;;;;;;;;;15.00;87.80;;;;;;5038845;28;20383;-77
2022/12/31 07:20:20;;;;;;;;;;;15.00;87.80;;;;;;5037412;28;19920;-77
2022/12/31 07:22:45;;;;;;;;;;;15.00;87.80;;;;;;5021636;28;19921;-76
2022/12/31 07:25:12;;;;;;;;;;;15.00;87.70;;;;;;5036634;28;19932;-78
2022/12/31 07:27:56;;;;;;;;;;;15.00;87.80;;;;;;5046894;28;19928;-78
2022/12/31 07:30:23;;;;;;;;;;;15.00;87.80;;;;;;5047715;28;19928;-73
2022/12/31 07:32:57;;;;;;;;;;;14.90;87.70;;;;;;5033717;28;19924;-73
2022/12/31 07:35:48;;;;;;;;;;;15.00;87.80;;;;;;5030858;28;19921;-74
2022/12/31 07:38:34;;;;;;;;;;;15.00;87.80;;;;;;5032376;28;19921;-72
2022/12/31 07:40:59;;;;;;;;;;;15.00;87.70;;;;;;5031830;28;19932;-74
2022/12/31 07:43:33;;;;;;;;;;;15.00;87.70;;;;;;5047677;28;19920;-74
2022/12/31 07:46:07;;;;;;;;;;;15.00;87.80;;;;;;5033704;28;20426;-77
2022/12/31 07:48:33;;;;;;;;;;;14.90;87.70;;;;;;5036970;28;19921;-76
2022/12/31 07:50:58;;;;;;;;;;;15.00;87.70;;;;;;5036648;28;19920;-77
2022/12/31 07:53:24;;;;;;;;;;;15.00;87.70;;;;;;5037156;28;19921;-77
2022/12/31 07:55:53;;;;;;;;;;;15.00;87.80;;;;;;5031095;28;20303;-77
2022/12/31 07:58:38;;;;;;;;;;;15.00;87.80;;;;;;5012167;28;20311;-77
2022/12/31 08:01:03;;;;;;;;;;;15.00;87.80;;;;;;5049291;28;19925;-77
2022/12/31 08:03:29;;;;;;;;;;;15.00;87.60;;;;;;5035665;28;19921;-77
2022/12/31 08:05:59;;;;;;;;;;;15.10;87.70;;;;;;5034452;28;19916;-74
2022/12/31 08:08:30;;;;;;;;;;;15.10;87.70;;;;;;5037029;28;19921;-77
2022/12/31 08:10:58;;;;;;;;;;;15.10;87.80;;;;;;5048036;28;20489;-77
2022/12/31 08:13:24;;;;;;;;;;;15.10;87.70;;;;;;5034710;28;19921;-77
2022/12/31 08:15:49;;;;;;;;;;;15.10;87.70;;;;;;5034422;28;20014;-78
2022/12/31 08:18:15;;;;;;;;;;;15.10;87.70;;;;;;5017391;28;19928;-77
2022/12/31 08:20:56;;;;;;;;;;;15.10;87.70;;;;;;5036427;28;21354;-76
2022/12/31 08:23:27;;;;;;;;;;;15.10;87.70;;;;;;5058213;28;19921;-78
2022/12/31 08:25:55;;;;;;;;;;;15.10;87.70;;;;;;5038235;28;19951;-76
2022/12/31 08:28:40;;;;;;;;;;;15.10;87.70;;;;;;5039616;28;20303;-77
2022/12/31 08:31:18;;;;;;;;;;;15.10;87.70;;;;;;5050425;28;20014;-77
2022/12/31 08:33:59;;;;;;;;;;;15.10;87.80;;;;;;5035831;28;20609;-77
2022/12/31 08:36:48;;;;;;;;;;;15.10;87.70;;;;;;5038019;28;19927;-76
2022/12/31 08:39:24;;;;;;;;;;;15.10;87.80;;;;;;5028920;28;19920;-77
2022/12/31 08:41:50;;;;;;;;;;;15.20;87.80;;;;;;5009247;28;19921;-77
2022/12/31 08:44:16;;;;;;;;;;;15.20;87.70;;;;;;5035853;28;19928;-77
2022/12/31 08:46:47;;;;;;;;;;;15.20;87.70;;;;;;5036043;28;20058;-77
2022/12/31 08:49:13;;;;;;;;;;;15.20;87.60;;;;;;5037276;28;19920;-77
2022/12/31 08:51:39;;;;;;;;;;;15.20;87.60;;;;;;5033046;28;19921;-73
2022/12/31 08:54:04;;;;;;;;;;;15.20;87.60;;;;;;5031655;28;19932;-78
2022/12/31 08:56:49;;;;;;;;;;;15.20;87.60;;;;;;5048822;28;20691;-78
2022/12/31 08:59:33;;;;;;;;;;;15.20;87.60;;;;;;5035391;28;20344;-77
2022/12/31 09:02:17;;;;;;;;;;;15.30;87.60;;;;;;5035598;28;19960;-77
2022/12/31 09:04:46;;;;;;;;;;;15.30;87.60;;;;;;5047226;28;19917;-75
2022/12/31 09:07:11;;;;;;;;;;;15.30;87.60;;;;;;5033938;28;19947;-77
2022/12/31 09:09:55;;;;;;;;;;;15.20;87.60;;;;;;5014009;28;20383;-77
2022/12/31 09:12:23;;;;;;;;;;;15.30;87.60;;;;;;5031473;28;19917;-78
2022/12/31 09:14:49;;;;;;;;;;;15.30;87.60;;;;;;5049939;28;19924;-77
2022/12/31 09:17:26;;;;;;;;;;;15.30;87.60;;;;;;5034523;28;19944;-78
2022/12/31 09:19:52;;;;;;;;;;;15.30;87.70;;;;;;5032878;28;19982;-76
2022/12/31 09:22:17;;;;;;;;;;;15.30;87.60;;;;;;5041496;28;19932;-77
2022/12/31 09:24:43;;;;;;;;;;;15.30;87.60;;;;;;5056198;28;19955;-75
2022/12/31 09:27:12;;;;;;;;;;;15.30;87.60;;;;;;5038688;28;19928;-77
2022/12/31 09:29:58;;;;;;;;;;;15.40;87.60;;;;;;5041916;28;19925;-77
2022/12/31 09:32:53;;;;;;;;;;;15.40;87.50;;;;;;5035892;28;20024;-77
2022/12/31 09:35:19;;;;;;;;;;;15.40;87.50;;;;;;5002256;28;20388;-76
2022/12/31 09:37:47;;;;;;;;;;;15.50;87.50;;;;;;5036078;28;19931;-77
2022/12/31 09:40:28;;;;;;;;;;;15.50;87.40;;;;;;5038017;28;19971;-78
2022/12/31 09:42:57;;;;;;;;;;;15.60;87.40;;;;;;5052784;28;19921;-77
2022/12/31 09:45:41;;;;;;;;;;;15.60;87.30;;;;;;5037855;28;19925;-77
2022/12/31 09:48:07;;;;;;;;;;;15.70;87.30;;;;;;5054830;28;20003;-77
2022/12/31 09:50:38;;;;;;;;;;;15.70;87.20;;;;;;5040306;28;19995;-77
2022/12/31 09:53:17;;;;;;;;;;;15.70;87.20;;;;;;5039503;28;19923;-77
2022/12/31 09:55:49;;;;;;;;;;;15.80;87.20;;;;;;5040001;28;19921;-76
2022/12/31 09:58:29;;;;;;;;;;;15.80;87.10;;;;;;5035480;28;20031;-78
2022/12/31 10:00:56;;;;;;;;;;;15.80;87.10;;;;;;5054925;28;19925;-77
2022/12/31 10:03:51;;;;;;;;;;;15.80;86.90;;;;;;5038102;28;19921;-78
2022/12/31 10:06:23;;;;;;;;;;;15.80;86.90;;;;;;5037760;28;19921;-77
2022/12/31 10:09:01;;;;;;;;;;;15.90;87.00;;;;;;5038848;28;19921;-77
2022/12/31 10:11:38;;;;;;;;;;;15.90;86.80;;;;;;5035090;28;19920;-77
2022/12/31 10:14:14;;;;;;;;;;;16.00;87.00;;;;;;5050555;28;19932;-77
2022/12/31 10:16:58;;;;;;;;;;;16.00;86.80;;;;;;5036806;28;19955;-78
2022/12/31 10:19:30;;;;;;;;;;;16.10;86.80;;;;;;5038866;28;20003;-78
2022/12/31 10:22:01;;;;;;;;;;;16.10;86.80;;;;;;5020836;28;19979;-76
2022/12/31 10:24:46;;;;;;;;;;;16.10;86.80;;;;;;5037580;28;20012;-77
2022/12/31 10:27:15;;;;;;;;;;;16.20;86.70;;;;;;5051750;28;20555;-78
2022/12/31 10:29:57;;;;;;;;;;;16.20;86.70;;;;;;5039127;28;19925;-77
2022/12/31 10:32:32;;;;;;;;;;;16.30;86.60;;;;;;5049456;28;19920;-78
2022/12/31 10:35:16;;;;;;;;;;;16.30;86.60;;;;;;5033949;28;19970;-76
2022/12/31 10:37:41;;;;;;;;;;;16.40;86.40;;;;;;5048725;28;19951;-78
2022/12/31 10:40:13;;;;;;;;;;;16.50;86.50;;;;;;5033298;28;20403;-78
2022/12/31 10:42:51;;;;;;;;;;;16.50;86.40;;;;;;5051200;28;20436;-77
2022/12/31 10:45:35;;;;;;;;;;;16.50;86.30;;;;;;5034019;28;20373;-78
2022/12/31 10:48:19;;;;;;;;;;;16.60;86.30;;;;;;5035308;28;19928;-77
2022/12/31 10:51:03;;;;;;;;;;;16.60;86.20;;;;;;5037138;28;19951;-76
2022/12/31 10:53:48;;;;;;;;;;;16.70;86.20;;;;;;5039148;28;19927;-78
2022/12/31 10:56:36;;;;;;;;;;;16.70;86.10;;;;;;5033528;28;19925;-77
2022/12/31 10:59:02;;;;;;;;;;;16.80;86.10;;;;;;5004182;28;21394;-78
2022/12/31 11:01:32;;;;;;;;;;;16.90;86.00;;;;;;5051517;28;20319;-78
2022/12/31 11:04:00;;;;;;;;;;;16.90;85.90;;;;;;5037846;28;20310;-77
2022/12/31 11:06:44;;;;;;;;;;;16.90;85.70;;;;;;5034946;28;19928;-78
2022/12/31 11:09:22;;;;;;;;;;;17.00;85.80;;;;;;5036390;28;19921;-78
2022/12/31 11:11:57;;;;;;;;;;;17.10;85.70;;;;;;5049783;28;19933;-78
2022/12/31 11:14:22;;;;;;;;;;;17.10;85.60;;;;;;5049849;28;19930;-78
2022/12/31 11:17:00;;;;;;;;;;;17.20;85.60;;;;;;5035259;28;19925;-78
2022/12/31 11:19:44;;;;;;;;;;;17.30;85.50;;;;;;5049246;28;19948;-77
2022/12/31 11:22:21;;;;;;;;;;;17.40;85.40;;;;;;5035919;28;20425;-78
2022/12/31 11:24:50;;;;;;;;;;;17.40;85.30;;;;;;5033829;28;20465;-77
2022/12/31 11:27:35;;;;;;;;;;;17.50;85.30;;;;;;5037257;28;19921;-78
2022/12/31 11:30:01;;;;;;;;;;;17.60;85.20;;;;;;5050895;28;19925;-77
2022/12/31 11:32:45;;;;;;;;;;;17.70;84.90;;;;;;5036351;28;20379;-77
2022/12/31 11:35:27;;;;;;;;;;;17.80;85.00;;;;;;5035365;28;19928;-75
2022/12/31 11:38:11;;;;;;;;;;;17.80;84.90;;;;;;5020536;28;20027;-78
2022/12/31 11:40:37;;;;;;;;;;;18.00;84.80;;;;;;5035999;28;20674;-78
2022/12/31 11:43:21;;;;;;;;;;;18.10;84.70;;;;;;5033991;28;20039;-78
2022/12/31 11:46:05;;;;;;;;;;;18.10;84.50;;;;;;5037064;28;19921;-78
2022/12/31 11:48:34;;;;;;;;;;;18.20;84.40;;;;;;5037132;28;19927;-77
2022/12/31 11:51:02;;;;;;;;;;;18.20;84.30;;;;;;5049821;28;20380;-76
2022/12/31 11:53:33;;;;;;;;;;;18.20;84.20;;;;;;5033506;28;19994;-78
2022/12/31 11:56:21;;;;;;;;;;;18.20;84.20;;;;;;5050971;28;19918;-76
2022/12/31 11:58:48;;;;;;;;;;;18.30;84.20;;;;;;5036041;28;20339;-78
2022/12/31 12:01:16;;;;;;;;;;;18.30;84.20;;;;;;5034069;28;19925;-78
2022/12/31 12:03:42;;;;;;;;;;;18.30;84.10;;;;;;5033865;28;19921;-78
2022/12/31 12:06:11;;;;;;;;;;;18.40;84.00;;;;;;5035397;28;20019;-78
2022/12/31 12:08:36;;;;;;;;;;;18.40;84.00;;;;;;5036726;28;19924;-78
2022/12/31 12:11:04;;;;;;;;;;;18.40;84.00;;;;;;5037066;28;20268;-78
2022/12/31 12:13:29;;;;;;;;;;;18.50;84.00;;;;;;5032397;28;19961;-78
2022/12/31 12:15:58;;;;;;;;;;;18.50;83.90;;;;;;5035169;28;19925;-78
2022/12/31 12:18:37;;;;;;;;;;;18.60;83.90;;;;;;5018304;28;19951;-78
2022/12/31 12:21:10;;;;;;;;;;;18.60;83.80;;;;;;5018890;28;20619;-78
2022/12/31 12:23:35;;;;;;;;;;;18.60;83.70;;;;;;5032581;28;19921;-77
2022/12/31 12:26:01;;;;;;;;;;;18.60;83.70;;;;;;5034787;28;19928;-77
2022/12/31 12:28:27;;;;;;;;;;;18.60;83.60;;;;;;5036488;28;19921;-78
2022/12/31 12:30:57;;;;;;;;;;;18.70;83.60;;;;;;5034623;28;19935;-77
2022/12/31 12:33:22;;;;;;;;;;;18.70;83.60;;;;;;5014099;28;19948;-78
2022/12/31 12:35:48;;;;;;;;;;;18.70;83.60;;;;;;5034067;28;19944;-78
2022/12/31 12:38:14;;;;;;;;;;;18.70;83.60;;;;;;5035337;28;19958;-77
2022/12/31 12:40:40;;;;;;;;;;;18.70;83.70;;;;;;5032446;28;19980;-77
2022/12/31 12:43:16;;;;;;;;;;;18.80;83.70;;;;;;5032571;28;19928;-78
2022/12/31 12:45:42;;;;;;;;;;;18.80;83.60;;;;;;5032943;28;19920;-78
2022/12/31 12:48:12;;;;;;;;;;;18.90;83.60;;;;;;5035812;28;20330;-78
2022/12/31 12:50:38;;;;;;;;;;;19.00;83.60;;;;;;5034265;28;19992;-78
2022/12/31 12:53:16;;;;;;;;;;;19.10;83.30;;;;;;5049412;28;20378;-77
2022/12/31 12:55:48;;;;;;;;;;;19.10;83.20;;;;;;5032645;28;19925;-77
2022/12/31 12:58:19;;;;;;;;;;;19.10;83.10;;;;;;5032836;28;19928;-78
2022/12/31 13:01:06;;;;;;;;;;;19.20;83.00;;;;;;5032710;28;19928;-77
2022/12/31 13:03:52;;;;;;;;;;;19.20;83.00;;;;;;5032050;28;19928;-75
2022/12/31 13:06:23;;;;;;;;;;;19.20;83.00;;;;;;5047649;28;19921;-78
2022/12/31 13:09:04;;;;;;;;;;;19.30;83.10;;;;;;5036571;28;19927;-76
2022/12/31 13:11:48;;;;;;;;;;;19.30;83.00;;;;;;5033664;28;19921;-78
2022/12/31 13:14:17;;;;;;;;;;;19.40;83.00;;;;;;5033884;28;20237;-77
2022/12/31 13:16:45;;;;;;;;;;;19.40;82.90;;;;;;5034428;28;19925;-76
2022/12/31 13:19:30;;;;;;;;;;;19.40;82.50;;;;;;5032531;28;19936;-77
2022/12/31 13:21:56;;;;;;;;;;;19.40;82.60;;;;;;5033102;28;19932;-78
2022/12/31 13:24:25;;;;;;;;;;;19.50;82.50;;;;;;5049189;28;19928;-78
2022/12/31 13:27:10;;;;;;;;;;;19.40;82.50;;;;;;5035558;28;19982;-78
2022/12/31 13:29:35;;;;;;;;;;;19.40;82.50;;;;;;5035317;28;20874;-78
2022/12/31 13:32:01;;;;;;;;;;;19.40;82.50;;;;;;5035711;28;19952;-78
2022/12/31 13:34:28;;;;;;;;;;;19.30;82.40;;;;;;5016205;28;19925;-76
2022/12/31 13:36:53;;;;;;;;;;;19.30;82.50;;;;;;5028611;28;20201;-77
2022/12/31 13:39:22;;;;;;;;;;;19.20;82.60;;;;;;5033173;28;19921;-76
2022/12/31 13:41:49;;;;;;;;;;;19.10;82.50;;;;;;5028258;28;19932;-77
2022/12/31 13:44:26;;;;;;;;;;;19.10;82.60;;;;;;5032877;28;20410;-77
2022/12/31 13:46:55;;;;;;;;;;;19.10;83.40;;;;;;5035347;28;19967;-77
2022/12/31 13:49:20;;;;;;;;;;;19.00;82.70;;;;;;5017668;28;19921;-77
2022/12/31 13:51:47;;;;;;;;;;;18.90;82.70;;;;;;5033561;28;20028;-76
2022/12/31 13:54:29;;;;;;;;;;;18.90;82.70;;;;;;5033976;28;19947;-77
2022/12/31 13:56:56;;;;;;;;;;;18.90;82.80;;;;;;5047549;28;19924;-77
2022/12/31 13:59:22;;;;;;;;;;;18.90;83.00;;;;;;5033668;28;19967;-77
2022/12/31 14:01:50;;;;;;;;;;;18.80;82.60;;;;;;5046106;28;19924;-77
2022/12/31 14:04:17;;;;;;;;;;;18.80;82.70;;;;;;5034690;28;19925;-76
2022/12/31 14:06:45;;;;;;;;;;;18.70;82.60;;;;;;5048115;28;19920;-77
2022/12/31 14:09:16;;;;;;;;;;;18.70;82.70;;;;;;5037959;28;19921;-77
2022/12/31 14:12:01;;;;;;;;;;;18.70;82.80;;;;;;5037519;28;19932;-77
2022/12/31 14:14:30;;;;;;;;;;;18.60;82.70;;;;;;5004870;28;19953;-77
2022/12/31 14:17:07;;;;;;;;;;;18.60;82.80;;;;;;5037491;28;20703;-77
2022/12/31 14:19:54;;;;;;;;;;;18.50;82.80;;;;;;5035589;28;19917;-77
2022/12/31 14:22:26;;;;;;;;;;;18.50;82.90;;;;;;5034326;28;19921;-77
2022/12/31 14:24:51;;;;;;;;;;;18.40;82.80;;;;;;5035305;28;20566;-76
2022/12/31 14:27:21;;;;;;;;;;;18.40;82.80;;;;;;5036852;28;19921;-77
2022/12/31 14:29:53;;;;;;;;;;;18.30;82.90;;;;;;5038951;28;19978;-76
2022/12/31 14:32:25;;;;;;;;;;;18.30;82.90;;;;;;5052898;28;19920;-77
2022/12/31 14:34:59;;;;;;;;;;;18.20;83.00;;;;;;5034331;28;20467;-77
2022/12/31 14:37:34;;;;;;;;;;;18.20;83.10;;;;;;5050398;28;20008;-77
2022/12/31 14:40:23;;;;;;;;;;;18.10;83.10;;;;;;5035512;28;19932;-77